Terminal Aerodrome Forecast
Issued by NWS Portland, OR

Home | Current Version | Previous Version | Text Only | Print | Product List | Glossary On
Versions: 1 2 3 4 5 6 7 8 9 10 11 12 13 14 15 16 17 18
000
FTUS46 KPQR 251312 AAA
TAFSLE
TAF AMD
KSLE 251312Z 2513/2612 18011KT P6SM -RA BKN015 OVC030
     FM251600 18012G22KT 5SM -RA OVC025
     FM251900 20012KT 3SM -RA BR OVC025
     FM260200 23009KT 6SM -SHRA OVC050
     FM260500 20006KT P6SM VCSH SCT035 OVC050=

USA.gov is the U.S. government's official web portal to all federal, state and local government web resources and services.